createdAt,value
2023-03-17T00:01:13.911Z,59.99
2023-03-17T00:03:42.911Z,59.94
2023-03-17T00:06:19.141Z,60.03
2023-03-17T00:08:48.298Z,60.13
2023-03-17T00:11:17.308Z,59.65
2023-03-17T00:13:46.119Z,60.17
2023-03-17T00:16:25.470Z,59.95
2023-03-17T00:18:53.794Z,59.83
2023-03-17T00:21:28.289Z,59.54
2023-03-17T00:23:56.227Z,59.83
2023-03-17T00:26:24.209Z,59.46
2023-03-17T00:28:52.989Z,59.49
2023-03-17T00:31:22.403Z,59.60
2023-03-17T00:33:52.247Z,59.44
2023-03-17T00:36:21.456Z,59.65
2023-03-17T00:38:48.619Z,59.76
2023-03-17T00:41:15.274Z,59.37
2023-03-17T00:43:42.058Z,59.70
2023-03-17T00:46:23.711Z,59.53
2023-03-17T00:48:50.456Z,59.74
2023-03-17T00:51:17.389Z,59.70
2023-03-17T00:53:44.297Z,59.65
2023-03-17T00:56:14.597Z,59.17
2023-03-17T00:58:42.117Z,59.17
2023-03-17T01:01:09.220Z,59.18
2023-03-17T01:03:36.252Z,58.99
2023-03-17T01:06:05.078Z,59.29
2023-03-17T01:08:32.180Z,59.23
2023-03-17T01:10:59.536Z,59.42
2023-03-17T01:13:26.370Z,59.19
2023-03-17T01:15:53.230Z,59.07
2023-03-17T01:18:22.774Z,59.28
2023-03-17T01:20:51.139Z,59.05
2023-03-17T01:23:18.206Z,59.06
2023-03-17T01:25:45.501Z,59.18
2023-03-17T01:28:14.870Z,58.64
2023-03-17T01:30:41.531Z,58.66
2023-03-17T01:33:09.882Z,59.05
2023-03-17T01:35:38.304Z,58.60
2023-03-17T01:38:06.118Z,59.14
2023-03-17T01:40:35.947Z,58.61
2023-03-17T01:43:17.537Z,58.51
2023-03-17T01:46:21.255Z,58.59
2023-03-17T01:48:56.771Z,58.63
2023-03-17T01:51:36.617Z,58.78
2023-03-17T01:54:08.543Z,58.55
2023-03-17T01:56:37.994Z,58.48
2023-03-17T01:59:10.149Z,58.83
2023-03-17T02:01:43.574Z,58.80
2023-03-17T02:04:11.918Z,58.75
2023-03-17T02:06:55.113Z,58.28
2023-03-17T02:09:24.268Z,58.56
2023-03-17T02:11:51.080Z,58.69
2023-03-17T02:14:17.876Z,58.62
2023-03-17T02:16:47.774Z,58.68
2023-03-17T02:19:14.451Z,58.62
2023-03-17T02:21:45.287Z,58.46
2023-03-17T02:24:28.287Z,58.70
2023-03-17T02:27:00.440Z,58.30
2023-03-17T02:29:27.732Z,58.44
2023-03-17T02:31:54.765Z,58.43
2023-03-17T02:34:21.819Z,58.81
2023-03-17T02:36:48.522Z,58.85
2023-03-17T02:39:15.395Z,58.43
2023-03-17T02:41:42.496Z,58.80
2023-03-17T02:44:09.348Z,58.47
2023-03-17T02:46:36.299Z,59.04
2023-03-17T02:49:04.389Z,58.76
2023-03-17T02:51:31.023Z,58.88
2023-03-17T02:53:57.600Z,59.08
2023-03-17T02:56:24.299Z,58.98
2023-03-17T02:58:51.185Z,58.82
2023-03-17T03:01:18.307Z,59.01
2023-03-17T03:03:44.911Z,58.69
2023-03-17T03:06:11.656Z,58.60
2023-03-17T03:08:38.404Z,58.67
2023-03-17T03:11:05.143Z,58.56
2023-03-17T03:13:32.757Z,59.08
2023-03-17T03:16:00.185Z,59.02
2023-03-17T03:18:26.941Z,58.95
2023-03-17T03:20:53.703Z,59.04
2023-03-17T03:23:20.782Z,58.90
2023-03-17T03:25:47.498Z,58.82
2023-03-17T03:28:14.112Z,58.86
2023-03-17T03:30:41.663Z,58.46
2023-03-17T03:33:08.367Z,58.67
2023-03-17T03:35:35.363Z,59.05
2023-03-17T03:38:02.203Z,59.04
2023-03-17T03:40:28.992Z,58.87
2023-03-17T03:42:56.176Z,58.53
2023-03-17T03:45:23.018Z,58.79
2023-03-17T03:47:49.683Z,58.77
2023-03-17T03:50:16.785Z,58.96
2023-03-17T03:52:43.413Z,58.52
2023-03-17T03:55:10.525Z,58.78
2023-03-17T03:57:37.340Z,58.46
2023-03-17T04:00:05.207Z,59.00
2023-03-17T04:02:31.991Z,58.65
2023-03-17T04:04:58.687Z,58.55
2023-03-17T04:07:25.768Z,58.76
2023-03-17T04:09:52.340Z,59.12
2023-03-17T04:12:19.532Z,58.81
2023-03-17T04:14:46.174Z,58.89
2023-03-17T04:17:13.114Z,59.07
2023-03-17T04:19:40.108Z,58.92
2023-03-17T04:22:09.086Z,58.44
2023-03-17T04:24:35.819Z,58.81
2023-03-17T04:27:05.485Z,58.88
2023-03-17T04:29:32.654Z,59.11
2023-03-17T04:31:59.753Z,58.41
2023-03-17T04:34:27.323Z,58.58
2023-03-17T04:36:54.335Z,58.95
2023-03-17T04:39:21.020Z,58.85
2023-03-17T04:41:47.695Z,58.93
2023-03-17T04:44:14.378Z,58.95
2023-03-17T04:46:40.982Z,59.04
2023-03-17T04:49:08.473Z,58.77
2023-03-17T04:51:36.959Z,58.72
2023-03-17T04:54:03.849Z,58.94
2023-03-17T04:56:31.929Z,58.76
2023-03-17T04:58:58.911Z,59.03
2023-03-17T05:01:25.721Z,59.09
2023-03-17T05:03:52.655Z,58.99
2023-03-17T05:06:19.372Z,58.69
2023-03-17T05:08:46.085Z,58.81
2023-03-17T05:11:13.650Z,59.25
2023-03-17T05:13:43.488Z,58.83
2023-03-17T05:16:11.145Z,59.31
2023-03-17T05:18:38.403Z,58.92
2023-03-17T05:21:06.456Z,59.17
2023-03-17T05:23:34.015Z,59.03
2023-03-17T05:26:01.063Z,58.99
2023-03-17T05:28:27.941Z,58.97
2023-03-17T05:30:55.217Z,59.01
2023-03-17T05:33:22.204Z,59.30
2023-03-17T05:35:48.949Z,58.89
2023-03-17T05:38:16.124Z,59.43
2023-03-17T05:40:43.488Z,59.18
2023-03-17T05:43:10.620Z,59.00
2023-03-17T05:45:37.724Z,59.04
2023-03-17T05:48:04.905Z,59.34
2023-03-17T05:50:32.516Z,59.05
2023-03-17T05:52:59.411Z,59.25
2023-03-17T05:55:26.263Z,58.99
2023-03-17T05:57:52.978Z,58.94
2023-03-17T06:00:21.508Z,59.06
2023-03-17T06:02:48.403Z,59.20
2023-03-17T06:05:15.135Z,59.54
2023-03-17T06:07:52.844Z,59.04
2023-03-17T06:10:21.994Z,59.49
2023-03-17T06:12:48.620Z,59.38
2023-03-17T06:15:16.638Z,59.45
2023-03-17T06:17:43.635Z,59.21
2023-03-17T06:20:11.790Z,59.28
2023-03-17T06:22:46.311Z,59.50
2023-03-17T06:25:19.026Z,59.43
2023-03-17T06:27:45.640Z,59.39
2023-03-17T06:30:12.552Z,59.38
2023-03-17T06:32:40.255Z,59.42
2023-03-17T06:35:07.547Z,59.20
2023-03-17T06:37:35.154Z,59.16
2023-03-17T06:40:02.305Z,58.98
2023-03-17T06:42:28.953Z,58.96
2023-03-17T06:44:55.651Z,59.30
2023-03-17T06:47:25.486Z,59.15
2023-03-17T06:49:53.535Z,59.11
2023-03-17T06:52:20.225Z,58.98
2023-03-17T06:54:47.301Z,59.00
2023-03-17T06:57:13.998Z,59.13
2023-03-17T06:59:41.760Z,58.76
2023-03-17T07:02:11.657Z,59.15
2023-03-17T07:04:38.694Z,58.85
2023-03-17T07:07:06.176Z,58.82
2023-03-17T07:09:34.664Z,59.23
2023-03-17T07:12:05.176Z,58.90
2023-03-17T07:14:36.784Z,59.02
2023-03-17T07:17:06.130Z,59.38
2023-03-17T07:19:33.447Z,59.51
2023-03-17T07:22:00.246Z,58.94
2023-03-17T07:24:27.083Z,59.24
2023-03-17T07:26:53.742Z,59.03
2023-03-17T07:29:21.389Z,58.89
2023-03-17T07:31:48.398Z,59.08
2023-03-17T07:34:16.448Z,58.64
2023-03-17T07:36:43.310Z,58.87
2023-03-17T07:39:12.015Z,58.41
2023-03-17T07:41:38.998Z,58.09
2023-03-17T07:44:05.635Z,57.86
2023-03-17T07:46:32.394Z,58.20
2023-03-17T07:48:59.070Z,57.68
2023-03-17T07:51:28.248Z,57.86
2023-03-17T07:54:03.337Z,57.50
2023-03-17T07:56:31.446Z,57.29
2023-03-17T07:58:59.136Z,56.92
2023-03-17T08:01:29.084Z,57.29
2023-03-17T08:03:56.683Z,56.84
2023-03-17T08:06:27.548Z,56.33
2023-03-17T08:08:55.117Z,56.20
2023-03-17T08:11:23.474Z,55.95
2023-03-17T08:13:51.066Z,56.39
2023-03-17T08:16:17.841Z,56.08
2023-03-17T08:18:44.806Z,55.86
2023-03-17T08:21:12.294Z,56.14
2023-03-17T08:23:39.688Z,56.18
2023-03-17T08:26:06.567Z,55.62
2023-03-17T08:28:33.183Z,56.10
2023-03-17T08:31:15.331Z,55.85
2023-03-17T08:33:43.131Z,55.50
2023-03-17T08:36:11.464Z,55.98
2023-03-17T08:38:40.204Z,55.60
2023-03-17T08:41:10.827Z,56.05
2023-03-17T08:43:37.462Z,55.97
2023-03-17T08:46:13.100Z,56.04
2023-03-17T08:48:39.906Z,55.90
2023-03-17T08:51:06.950Z,55.85
2023-03-17T08:53:35.223Z,55.98
2023-03-17T08:56:04.688Z,56.11
2023-03-17T08:58:31.544Z,55.91
2023-03-17T09:01:03.765Z,55.35
2023-03-17T09:03:31.241Z,55.33
2023-03-17T09:05:58.174Z,55.24
2023-03-17T09:08:25.346Z,55.59
2023-03-17T09:10:53.173Z,54.83
2023-03-17T09:13:20.878Z,54.88
2023-03-17T09:15:51.250Z,54.84
2023-03-17T09:18:21.394Z,54.44
2023-03-17T09:20:48.814Z,54.34
2023-03-17T09:23:16.101Z,53.89
2023-03-17T09:25:43.117Z,54.22
2023-03-17T09:28:12.193Z,53.75
2023-03-17T09:30:43.003Z,53.80
2023-03-17T09:33:12.022Z,54.14
2023-03-17T09:35:39.988Z,54.02
2023-03-17T09:38:08.317Z,54.27
2023-03-17T09:40:47.978Z,53.33
2023-03-17T09:43:31.974Z,52.94
2023-03-17T09:46:14.252Z,53.30
2023-03-17T09:49:01.703Z,53.16
2023-03-17T09:51:30.029Z,52.99
2023-03-17T09:54:02.445Z,52.79
2023-03-17T09:56:34.843Z,52.50
2023-03-17T09:59:32.228Z,52.11
2023-03-17T10:01:59.188Z,52.15
2023-03-17T10:04:25.910Z,51.76
2023-03-17T10:07:01.712Z,51.46
2023-03-17T10:09:41.898Z,51.63
2023-03-17T10:12:12.572Z,51.46
2023-03-17T10:14:54.513Z,51.13
2023-03-17T10:17:29.889Z,51.49
2023-03-17T10:20:08.810Z,51.17
2023-03-17T10:22:48.472Z,50.55
2023-03-17T10:25:23.713Z,50.92
2023-03-17T10:27:58.223Z,51.12
2023-03-17T10:30:25.978Z,51.09
2023-03-17T10:32:53.947Z,50.88
2023-03-17T10:35:23.534Z,50.42
2023-03-17T10:37:51.118Z,50.15
2023-03-17T10:40:28.642Z,50.16
2023-03-17T10:43:03.823Z,50.26
2023-03-17T10:45:39.093Z,50.55
2023-03-17T10:48:17.418Z,50.47
2023-03-17T10:50:48.655Z,50.22
2023-03-17T10:53:30.315Z,50.14
2023-03-17T10:56:07.274Z,50.47
2023-03-17T10:59:05.053Z,50.28
2023-03-17T11:01:47.404Z,50.82
2023-03-17T11:04:27.526Z,50.40
2023-03-17T11:06:58.376Z,50.42
2023-03-17T11:09:29.210Z,50.35
2023-03-17T11:12:36.692Z,50.28
2023-03-17T11:15:17.734Z,50.49
2023-03-17T11:17:58.978Z,50.21
2023-03-17T11:20:40.900Z,50.20
2023-03-17T11:23:19.500Z,50.21
2023-03-17T11:25:49.802Z,50.43
2023-03-17T11:28:21.949Z,50.24
2023-03-17T11:31:18.916Z,49.83
2023-03-17T11:34:02.510Z,49.11
2023-03-17T11:36:44.720Z,49.18
2023-03-17T11:39:23.915Z,49.17
2023-03-17T11:42:08.626Z,48.89
2023-03-17T11:45:13.348Z,48.55
2023-03-17T11:48:15.252Z,49.15
2023-03-17T11:50:44.317Z,49.12
2023-03-17T11:53:25.664Z,49.16
2023-03-17T11:55:58.067Z,49.10
2023-03-17T11:58:46.778Z,49.55
2023-03-17T12:01:19.600Z,49.20
2023-03-17T12:04:18.435Z,49.40
2023-03-17T12:06:52.051Z,49.91
2023-03-17T12:09:25.893Z,49.95
2023-03-17T12:11:55.855Z,49.83
2023-03-17T12:14:30.759Z,49.67
2023-03-17T12:17:17.180Z,49.47
2023-03-17T12:20:12.522Z,49.69
2023-03-17T12:23:06.997Z,49.68
2023-03-17T12:25:42.580Z,49.15
2023-03-17T12:28:17.875Z,49.46
2023-03-17T12:30:56.059Z,49.58
2023-03-17T12:33:36.834Z,49.85
2023-03-17T12:36:05.432Z,49.58
2023-03-17T12:38:43.289Z,49.52
2023-03-17T12:41:13.217Z,49.52
2023-03-17T12:43:48.415Z,49.21
2023-03-17T12:46:41.890Z,49.61
2023-03-17T12:49:36.247Z,49.04
2023-03-17T12:52:15.440Z,49.72
2023-03-17T12:54:46.540Z,49.67
2023-03-17T12:57:14.859Z,49.39
2023-03-17T12:59:48.438Z,49.40
2023-03-17T13:02:46.025Z,48.96
2023-03-17T13:05:17.598Z,49.26
2023-03-17T13:11:42.375Z,49.26
2023-03-17T13:14:24.572Z,48.84
2023-03-17T13:16:51.800Z,48.86
2023-03-17T13:19:22.873Z,48.80
2023-03-17T13:22:04.826Z,48.55
2023-03-17T13:24:47.423Z,48.44
2023-03-17T13:27:32.527Z,48.23
2023-03-17T13:30:21.797Z,48.63
2023-03-17T13:33:04.388Z,48.47
2023-03-17T13:35:45.601Z,48.94
2023-03-17T13:38:33.195Z,48.90
2023-03-17T13:41:08.752Z,48.72
2023-03-17T13:43:54.275Z,48.96
2023-03-17T13:46:44.123Z,49.17
2023-03-17T13:49:20.007Z,49.39
2023-03-17T13:52:00.348Z,49.02
2023-03-17T13:54:28.170Z,48.92
2023-03-17T13:56:59.298Z,49.20
2023-03-17T13:59:53.251Z,49.43
2023-03-17T14:02:23.811Z,49.33
2023-03-17T14:04:53.460Z,49.53
2023-03-17T14:07:24.216Z,49.58
2023-03-17T14:09:57.398Z,49.71
2023-03-17T14:12:38.425Z,49.35
2023-03-17T14:15:23.963Z,49.02
2023-03-17T14:17:57.578Z,49.54
2023-03-17T14:20:27.467Z,49.17
2023-03-17T14:22:57.395Z,48.69
2023-03-17T14:25:28.784Z,48.89
2023-03-17T14:27:57.920Z,49.53
2023-03-17T14:30:26.824Z,49.22
2023-03-17T14:33:13.998Z,48.92
2023-03-17T14:35:43.334Z,49.10
2023-03-17T14:38:19.171Z,49.30
2023-03-17T14:40:46.141Z,49.71
2023-03-17T14:43:13.699Z,49.53
2023-03-17T14:45:48.102Z,49.95
2023-03-17T14:48:17.494Z,49.40
2023-03-17T14:50:56.487Z,49.71
2023-03-17T14:53:24.740Z,49.67
2023-03-17T14:55:53.576Z,49.93
2023-03-17T14:58:36.756Z,50.20
2023-03-17T15:01:03.681Z,50.05
2023-03-17T15:03:33.174Z,50.23
2023-03-17T15:06:07.725Z,50.28
2023-03-17T15:08:43.550Z,50.08
2023-03-17T15:11:22.335Z,50.28
2023-03-17T15:13:50.542Z,49.92
2023-03-17T15:16:24.681Z,50.11
2023-03-17T15:19:01.927Z,50.43
2023-03-17T15:21:34.695Z,50.53
2023-03-17T15:24:23.437Z,50.63
2023-03-17T15:26:50.304Z,50.72
2023-03-17T15:29:17.089Z,50.92
2023-03-17T15:31:43.759Z,51.18
2023-03-17T15:34:15.173Z,50.61
2023-03-17T15:36:43.537Z,51.30
2023-03-17T15:39:10.531Z,51.01
2023-03-17T15:41:37.305Z,51.44
2023-03-17T15:44:05.237Z,51.48
2023-03-17T15:46:34.137Z,51.30
2023-03-17T15:49:01.333Z,51.12
2023-03-17T15:51:28.045Z,51.43
2023-03-17T15:53:54.653Z,51.89
2023-03-17T15:56:22.125Z,51.89
2023-03-17T15:58:52.272Z,51.63
2023-03-17T16:01:20.142Z,51.93
2023-03-17T16:03:48.102Z,52.31
2023-03-17T16:06:22.121Z,52.30
2023-03-17T16:08:50.352Z,52.08
2023-03-17T16:11:27.884Z,52.20
2023-03-17T16:13:56.585Z,52.34
2023-03-17T16:16:31.897Z,52.28
2023-03-17T16:18:59.278Z,52.58
2023-03-17T16:21:26.421Z,52.57
2023-03-17T16:23:54.035Z,52.34
2023-03-17T16:26:21.104Z,52.62
2023-03-17T16:28:49.139Z,52.92
2023-03-17T16:31:30.312Z,52.64
2023-03-17T16:33:57.286Z,52.84
2023-03-17T16:36:25.552Z,52.93
2023-03-17T16:38:52.402Z,53.26
2023-03-17T16:41:24.542Z,53.46
2023-03-17T16:43:57.659Z,53.91
2023-03-17T16:46:27.082Z,53.66
2023-03-17T16:48:53.842Z,54.00
2023-03-17T16:51:20.740Z,54.18
2023-03-17T16:53:47.424Z,54.12
2023-03-17T16:56:18.270Z,54.42
2023-03-17T16:58:46.262Z,54.00
2023-03-17T17:01:25.104Z,54.51
2023-03-17T17:03:52.215Z,54.18
2023-03-17T17:06:20.376Z,54.28
2023-03-17T17:08:48.173Z,54.54
2023-03-17T17:11:16.902Z,54.88
2023-03-17T17:13:46.282Z,54.60
2023-03-17T17:16:33.071Z,55.09
2023-03-17T17:19:00.380Z,54.72
2023-03-17T17:21:27.866Z,55.16
2023-03-17T17:23:55.666Z,55.00
2023-03-17T17:26:23.019Z,55.36
2023-03-17T17:28:49.929Z,55.56
2023-03-17T17:31:16.925Z,55.58
2023-03-17T17:33:43.601Z,55.69
2023-03-17T17:36:15.729Z,55.79
2023-03-17T17:38:43.154Z,55.59
2023-03-17T17:41:11.926Z,55.65
2023-03-17T17:43:39.240Z,56.10
2023-03-17T17:46:15.485Z,56.30
2023-03-17T17:48:42.294Z,56.34
2023-03-17T17:51:09.029Z,56.75
2023-03-17T17:53:35.906Z,56.95
2023-03-17T17:56:02.847Z,57.11
2023-03-17T17:58:29.437Z,56.87
2023-03-17T18:00:57.519Z,56.86
2023-03-17T18:03:26.383Z,57.07
2023-03-17T18:05:55.408Z,57.27
2023-03-17T18:08:23.878Z,57.73
2023-03-17T18:10:52.209Z,58.03
2023-03-17T18:13:19.272Z,57.85
2023-03-17T18:15:46.154Z,58.23
2023-03-17T18:18:12.891Z,58.59
2023-03-17T18:20:39.738Z,58.14
2023-03-17T18:23:06.791Z,58.55
2023-03-17T18:25:34.055Z,58.73
2023-03-17T18:28:01.509Z,58.76
2023-03-17T18:30:31.798Z,58.87
2023-03-17T18:33:04.508Z,58.67
2023-03-17T18:35:31.585Z,58.85
2023-03-17T18:37:58.521Z,58.86
2023-03-17T18:40:26.532Z,59.20
2023-03-17T18:42:53.308Z,58.85
2023-03-17T18:45:20.018Z,58.83
2023-03-17T18:47:47.069Z,59.25
2023-03-17T18:50:15.578Z,59.54
2023-03-17T18:52:43.787Z,59.79
2023-03-17T18:55:12.308Z,59.63
2023-03-17T18:57:39.285Z,59.92
2023-03-17T19:00:08.587Z,59.75
2023-03-17T19:02:36.315Z,59.92
2023-03-17T19:05:03.685Z,59.75
2023-03-17T19:07:30.767Z,60.14
2023-03-17T19:09:57.674Z,60.73
2023-03-17T19:12:24.760Z,60.57
2023-03-17T19:14:52.243Z,60.44
2023-03-17T19:17:19.011Z,60.91
2023-03-17T19:19:46.992Z,60.62
2023-03-17T19:22:14.167Z,60.92
2023-03-17T19:24:41.237Z,61.06
2023-03-17T19:27:07.971Z,61.15
2023-03-17T19:29:34.737Z,61.72
2023-03-17T19:32:02.340Z,61.44
2023-03-17T19:34:29.238Z,61.37
2023-03-17T19:36:56.207Z,62.03
2023-03-17T19:39:23.180Z,61.77
2023-03-17T19:41:53.300Z,62.08
2023-03-17T19:44:19.918Z,62.04
2023-03-17T19:46:46.729Z,61.77
2023-03-17T19:49:13.545Z,62.36
2023-03-17T19:51:42.008Z,62.00
2023-03-17T19:54:09.975Z,61.95
2023-03-17T19:56:38.401Z,62.31
2023-03-17T19:59:09.113Z,62.33
2023-03-17T20:01:37.868Z,62.39
2023-03-17T20:04:06.865Z,62.48
2023-03-17T20:06:34.765Z,62.21
2023-03-17T20:09:04.301Z,62.25
2023-03-17T20:11:33.972Z,62.40
2023-03-17T20:14:02.263Z,62.16
2023-03-17T20:16:31.942Z,62.39
2023-03-17T20:18:58.568Z,62.87
2023-03-17T20:21:25.519Z,62.62
2023-03-17T20:23:52.577Z,62.62
2023-03-17T20:26:20.057Z,62.88
2023-03-17T20:28:47.486Z,63.19
2023-03-17T20:31:14.378Z,63.37
2023-03-17T20:33:41.422Z,63.32
2023-03-17T20:36:08.497Z,63.09
2023-03-17T20:38:38.846Z,63.57
2023-03-17T20:41:11.307Z,63.58
2023-03-17T20:43:38.836Z,63.85
2023-03-17T20:46:08.571Z,64.07
2023-03-17T20:48:37.331Z,64.06
2023-03-17T20:51:06.155Z,64.24
2023-03-17T20:53:36.237Z,63.82
2023-03-17T20:56:03.086Z,63.73
2023-03-17T20:58:30.491Z,63.94
2023-03-17T21:00:58.516Z,64.13
2023-03-17T21:03:25.400Z,64.20
2023-03-17T21:05:53.413Z,64.36
2023-03-17T21:08:20.091Z,64.33
2023-03-17T21:10:46.807Z,64.18
2023-03-17T21:13:13.679Z,64.15
2023-03-17T21:15:41.216Z,64.11
2023-03-17T21:18:08.003Z,64.31
2023-03-17T21:20:34.735Z,64.36
2023-03-17T21:23:04.512Z,64.58
2023-03-17T21:25:31.291Z,64.35
2023-03-17T21:27:58.057Z,64.67
2023-03-17T21:30:24.689Z,64.62
2023-03-17T21:32:51.350Z,64.16
2023-03-17T21:35:18.184Z,64.44
2023-03-17T21:37:44.941Z,64.45
2023-03-17T21:40:15.697Z,64.59
2023-03-17T21:42:42.354Z,64.72
2023-03-17T21:45:09.329Z,64.73
2023-03-17T21:47:41.076Z,64.62
2023-03-17T21:50:08.565Z,65.07
2023-03-17T21:52:35.227Z,65.08
2023-03-17T21:55:01.971Z,65.19
2023-03-17T21:57:29.727Z,65.30
2023-03-17T21:59:56.350Z,64.92
2023-03-17T22:02:23.580Z,65.32
2023-03-17T22:04:50.332Z,65.24
2023-03-17T22:07:17.856Z,65.18
2023-03-17T22:09:44.951Z,65.00
2023-03-17T22:12:12.232Z,65.42
2023-03-17T22:14:38.871Z,65.14
2023-03-17T22:17:05.622Z,65.48
2023-03-17T22:19:32.457Z,65.15
2023-03-17T22:21:59.284Z,65.27
2023-03-17T22:24:26.138Z,65.56
2023-03-17T22:26:52.786Z,65.31
2023-03-17T22:29:19.940Z,65.55
2023-03-17T22:31:47.119Z,65.27
2023-03-17T22:34:13.959Z,65.33
2023-03-17T22:36:41.152Z,65.29
2023-03-17T22:39:10.955Z,65.18
2023-03-17T22:41:38.949Z,65.43
2023-03-17T22:44:08.345Z,65.28
2023-03-17T22:46:36.603Z,65.41
2023-03-17T22:49:03.745Z,65.17
2023-03-17T22:51:30.524Z,65.51
2023-03-17T22:53:57.777Z,65.26
2023-03-17T22:56:25.117Z,65.31
2023-03-17T22:58:52.337Z,65.02
2023-03-17T23:01:20.372Z,65.34
2023-03-17T23:03:47.258Z,65.38
2023-03-17T23:06:14.626Z,64.80
2023-03-17T23:08:43.332Z,65.01
2023-03-17T23:11:18.298Z,64.76
2023-03-17T23:13:47.342Z,64.90
2023-03-17T23:16:14.824Z,64.58
2023-03-17T23:18:44.078Z,64.44
2023-03-17T23:21:18.633Z,64.62
2023-03-17T23:23:45.484Z,64.67
2023-03-17T23:26:12.102Z,64.33
2023-03-17T23:28:38.917Z,64.52
2023-03-17T23:31:05.722Z,64.17
2023-03-17T23:33:32.733Z,64.13
2023-03-17T23:35:59.534Z,64.08
2023-03-17T23:38:26.418Z,64.08
2023-03-17T23:40:56.759Z,64.44
2023-03-17T23:43:23.875Z,63.82
2023-03-17T23:45:53.073Z,64.26
2023-03-17T23:48:20.738Z,64.13
2023-03-17T23:50:50.710Z,64.34
2023-03-17T23:53:17.979Z,64.26
2023-03-17T23:55:45.296Z,64.04
2023-03-17T23:58:12.454Z,64.19
